Time;durP1;ratioP1;P1;durP2;ratioP2;P2;SDS_P1;SDS_P2;PMS_P1;PMS_P2;Temp;Humidity;BMP_temperature;BMP_pressure;BME280_temperature;BME280_humidity;BME280_pressure;Samples;Min_cycle;Max_cycle;Signal;HPM_P1;HPM_P2
2023/07/21 00:00:15;;;;;;;3.80;2.50;;;13.50;99.90;;;;;;5050573;28;20032;-73
2023/07/21 00:02:42;;;;;;;3.28;1.90;;;13.50;99.90;;;;;;5050662;28;20524;-74
2023/07/21 00:05:09;;;;;;;3.17;2.13;;;13.50;99.90;;;;;;5050656;28;20068;-73
2023/07/21 00:07:35;;;;;;;5.18;2.50;;;13.40;99.90;;;;;;5050001;28;20075;-73
2023/07/21 00:10:07;;;;;;;4.13;1.90;;;13.40;99.90;;;;;;5050616;28;20029;-73
2023/07/21 00:12:34;;;;;;;3.42;2.38;;;13.40;99.90;;;;;;5049987;28;20060;-73
2023/07/21 00:15:00;;;;;;;3.58;2.35;;;13.40;99.90;;;;;;5050388;28;20098;-73
2023/07/21 00:17:27;;;;;;;4.32;2.20;;;13.40;99.90;;;;;;5050028;28;20107;-73
2023/07/21 00:19:53;;;;;;;4.72;2.28;;;13.40;99.90;;;;;;5050363;28;20033;-73
2023/07/21 00:22:19;;;;;;;4.28;2.38;;;13.30;99.90;;;;;;5049782;28;20051;-73
2023/07/21 00:24:45;;;;;;;5.05;2.80;;;13.30;99.90;;;;;;5050155;28;20041;-73
2023/07/21 00:27:11;;;;;;;7.82;2.50;;;13.30;99.90;;;;;;5048659;28;20025;-73
2023/07/21 00:29:37;;;;;;;4.05;2.67;;;13.20;99.90;;;;;;5049644;28;20060;-73
2023/07/21 00:32:03;;;;;;;6.00;3.13;;;13.30;99.90;;;;;;5050038;28;20042;-73
2023/07/21 00:34:28;;;;;;;5.47;2.53;;;13.20;99.90;;;;;;5049133;28;20075;-73
2023/07/21 00:36:57;;;;;;;4.65;2.22;;;13.30;99.90;;;;;;5050054;28;20136;-73
2023/07/21 00:39:22;;;;;;;3.30;2.45;;;13.30;99.90;;;;;;5049681;28;20385;-73
2023/07/21 00:41:48;;;;;;;6.63;2.70;;;13.20;99.90;;;;;;5050074;28;20025;-73
2023/07/21 00:44:14;;;;;;;6.80;2.45;;;13.20;99.90;;;;;;5049889;28;20025;-73
2023/07/21 00:46:40;;;;;;;3.67;2.15;;;13.20;99.90;;;;;;5049465;28;20379;-74
2023/07/21 00:49:08;;;;;;;3.00;2.20;;;13.20;99.90;;;;;;5049766;28;20081;-73
2023/07/21 00:51:34;;;;;;;7.93;2.40;;;13.10;99.90;;;;;;5048283;28;20068;-72
2023/07/21 00:54:00;;;;;;;4.35;2.17;;;13.10;99.90;;;;;;5050123;28;20060;-73
2023/07/21 00:56:26;;;;;;;4.88;2.50;;;13.20;99.90;;;;;;5049693;28;20439;-73
2023/07/21 00:58:52;;;;;;;7.53;2.60;;;13.20;99.90;;;;;;5050197;28;20071;-73
2023/07/21 01:01:18;;;;;;;3.58;2.28;;;13.30;99.90;;;;;;5049789;28;20033;-75
2023/07/21 01:03:43;;;;;;;2.78;2.03;;;13.20;99.90;;;;;;5049746;28;20070;-73
2023/07/21 01:06:10;;;;;;;2.60;2.00;;;13.20;99.90;;;;;;5050162;28;20376;-73
2023/07/21 01:08:37;;;;;;;3.47;2.15;;;13.20;99.90;;;;;;5049048;28;20450;-73
2023/07/21 01:11:02;;;;;;;4.07;2.28;;;13.10;99.90;;;;;;5050355;28;20025;-73
2023/07/21 01:13:31;;;;;;;3.47;2.33;;;13.20;99.90;;;;;;5049967;28;20032;-73
2023/07/21 01:15:58;;;;;;;7.60;2.42;;;13.20;99.90;;;;;;5050118;28;20025;-73
2023/07/21 01:18:25;;;;;;;2.78;2.20;;;13.20;99.90;;;;;;5049490;28;20021;-73
2023/07/21 01:20:53;;;;;;;5.13;2.30;;;13.20;99.90;;;;;;5049952;28;20053;-73
2023/07/21 01:23:38;;;;;;;3.22;2.17;;;13.20;99.90;;;;;;5049245;28;20033;-76
2023/07/21 01:26:06;;;;;;;3.50;2.20;;;13.20;99.90;;;;;;5049831;28;20029;-73
2023/07/21 01:28:32;;;;;;;5.80;2.35;;;13.20;99.90;;;;;;5048593;28;20049;-73
2023/07/21 01:31:00;;;;;;;6.15;2.50;;;13.10;99.90;;;;;;5049739;28;20108;-73
2023/07/21 01:33:28;;;;;;;3.88;2.35;;;13.10;99.90;;;;;;5048590;28;20084;-73
2023/07/21 01:35:55;;;;;;;5.15;2.10;;;13.00;99.90;;;;;;5049475;28;20033;-73
2023/07/21 01:38:22;;;;;;;4.50;2.10;;;13.10;99.90;;;;;;5049183;28;20339;-75
2023/07/21 01:40:49;;;;;;;4.82;2.60;;;13.10;99.90;;;;;;5049333;28;20056;-73
2023/07/21 01:43:15;;;;;;;5.50;2.60;;;13.10;99.90;;;;;;5049317;28;20029;-73
2023/07/21 01:45:41;;;;;;;3.53;2.17;;;13.10;99.90;;;;;;5048836;28;20032;-73
2023/07/21 01:48:07;;;;;;;6.05;2.60;;;13.10;99.90;;;;;;5049280;28;20025;-73
2023/07/21 01:50:35;;;;;;;5.55;2.92;;;13.10;99.90;;;;;;5049308;28;20032;-73
2023/07/21 01:53:05;;;;;;;6.18;2.60;;;13.20;99.90;;;;;;5049562;28;20086;-73
2023/07/21 01:55:39;;;;;;;6.63;2.47;;;13.20;99.90;;;;;;5049281;28;20159;-73
2023/07/21 01:58:07;;;;;;;5.65;2.58;;;13.20;99.90;;;;;;5048353;28;20041;-72
2023/07/21 02:00:37;;;;;;;4.68;2.90;;;13.20;99.90;;;;;;5050169;28;20044;-73
2023/07/21 02:03:04;;;;;;;4.93;2.65;;;13.20;99.90;;;;;;5053420;28;20359;-72
2023/07/21 02:05:30;;;;;;;6.88;2.58;;;13.20;99.90;;;;;;5052811;28;20167;-73
2023/07/21 02:07:56;;;;;;;6.85;2.85;;;13.20;99.90;;;;;;5053150;28;20493;-72
2023/07/21 02:10:22;;;;;;;4.68;2.30;;;13.10;99.90;;;;;;5053039;28;20017;-75
2023/07/21 02:12:48;;;;;;;6.13;2.72;;;13.10;99.90;;;;;;5052523;28;20663;-73
2023/07/21 02:15:14;;;;;;;6.40;2.53;;;13.10;99.90;;;;;;5052938;28;20032;-73
2023/07/21 02:17:40;;;;;;;5.32;2.38;;;13.00;99.90;;;;;;5052179;28;20035;-73
2023/07/21 02:20:10;;;;;;;5.63;2.58;;;13.00;99.90;;;;;;5053098;28;20025;-73
2023/07/21 02:22:37;;;;;;;6.80;2.90;;;12.90;99.90;;;;;;5052186;28;20028;-72
2023/07/21 02:25:04;;;;;;;10.50;3.22;;;12.90;99.90;;;;;;5052545;28;20112;-72
2023/07/21 02:27:31;;;;;;;3.92;2.55;;;12.90;99.90;;;;;;5051936;28;20056;-72
2023/07/21 02:29:56;;;;;;;5.38;3.15;;;12.90;99.90;;;;;;5052602;28;20029;-73
2023/07/21 02:32:23;;;;;;;9.82;3.15;;;12.90;99.90;;;;;;5052321;28;20029;-73
2023/07/21 02:34:50;;;;;;;6.15;2.88;;;12.90;99.90;;;;;;5051869;28;20033;-73
2023/07/21 02:37:16;;;;;;;6.25;2.67;;;13.00;99.90;;;;;;5052442;28;20082;-72
2023/07/21 02:39:41;;;;;;;4.95;2.60;;;13.00;99.90;;;;;;5051741;28;20108;-73
2023/07/21 02:42:07;;;;;;;6.63;2.72;;;13.00;99.90;;;;;;5051705;28;20175;-73
2023/07/21 02:44:33;;;;;;;5.90;2.55;;;13.00;99.90;;;;;;5051611;28;20029;-73
2023/07/21 02:46:58;;;;;;;4.22;2.92;;;13.00;99.90;;;;;;5052177;28;20026;-73
2023/07/21 02:49:24;;;;;;;4.25;2.50;;;13.00;99.90;;;;;;5052466;28;20028;-75
2023/07/21 02:51:50;;;;;;;4.82;2.47;;;13.10;99.90;;;;;;5051767;28;20450;-73
2023/07/21 02:54:16;;;;;;;3.72;2.58;;;13.00;99.90;;;;;;5051770;28;20021;-73
2023/07/21 02:56:42;;;;;;;8.05;2.63;;;13.00;99.90;;;;;;5051181;28;20116;-72
2023/07/21 02:59:11;;;;;;;5.00;2.50;;;13.00;99.90;;;;;;5052367;28;20047;-73
2023/07/21 03:01:38;;;;;;;6.70;2.40;;;12.90;99.90;;;;;;5051315;28;20025;-73
2023/07/21 03:04:05;;;;;;;6.30;2.30;;;12.90;99.90;;;;;;5051663;28;20422;-72
2023/07/21 03:06:33;;;;;;;6.63;2.95;;;12.90;99.90;;;;;;5051311;28;20022;-73
2023/07/21 03:08:59;;;;;;;4.03;2.50;;;12.90;99.90;;;;;;5051680;28;20028;-73
2023/07/21 03:11:25;;;;;;;7.50;3.10;;;12.90;99.90;;;;;;5051431;28;20112;-72
2023/07/21 03:13:51;;;;;;;3.67;2.35;;;12.90;99.90;;;;;;5051458;28;20163;-72
2023/07/21 03:16:16;;;;;;;2.58;2.15;;;12.90;99.90;;;;;;5051361;28;20444;-73
2023/07/21 03:18:42;;;;;;;7.53;2.53;;;12.80;99.90;;;;;;5051450;28;20024;-73
2023/07/21 03:21:08;;;;;;;5.00;2.20;;;12.90;99.90;;;;;;5051624;28;20060;-73
2023/07/21 03:23:34;;;;;;;6.43;3.10;;;12.80;99.90;;;;;;5051646;28;20032;-73
2023/07/21 03:26:00;;;;;;;5.03;2.47;;;12.80;99.90;;;;;;5051632;28;20446;-73
2023/07/21 03:28:26;;;;;;;4.55;2.90;;;12.80;99.90;;;;;;5051241;28;20113;-72
2023/07/21 03:31:02;;;;;;;7.43;3.00;;;12.80;99.90;;;;;;5051264;28;20403;-73
2023/07/21 03:33:28;;;;;;;4.72;2.60;;;12.80;99.90;;;;;;5051616;28;20116;-76
2023/07/21 03:36:01;;;;;;;3.85;2.40;;;12.80;99.90;;;;;;5051385;28;20076;-72
2023/07/21 03:38:28;;;;;;;6.97;2.60;;;12.80;99.90;;;;;;5051390;28;20041;-74
2023/07/21 03:41:07;;;;;;;4.47;2.85;;;12.80;99.90;;;;;;5050911;28;20024;-73
2023/07/21 03:43:35;;;;;;;8.23;2.72;;;12.80;99.90;;;;;;5050578;28;20025;-73
2023/07/21 03:46:02;;;;;;;7.88;2.65;;;12.70;99.90;;;;;;5050856;28;20028;-73
2023/07/21 03:48:28;;;;;;;7.28;2.78;;;12.70;99.90;;;;;;5050781;28;20592;-75
2023/07/21 03:51:05;;;;;;;3.80;2.45;;;12.70;99.90;;;;;;5051070;28;20105;-73
2023/07/21 03:53:31;;;;;;;4.88;2.40;;;12.70;99.90;;;;;;5050750;28;20029;-74
2023/07/21 03:55:57;;;;;;;5.13;2.38;;;12.70;99.90;;;;;;5051063;28;20493;-73
2023/07/21 03:58:23;;;;;;;5.88;3.08;;;12.70;99.90;;;;;;5051223;28;20036;-73
2023/07/21 04:00:48;;;;;;;5.90;2.90;;;12.70;99.90;;;;;;5050600;28;20286;-73
2023/07/21 04:03:15;;;;;;;5.65;2.63;;;12.60;99.90;;;;;;5050779;28;20021;-73
2023/07/21 04:05:41;;;;;;;5.13;2.47;;;12.60;99.90;;;;;;5050445;28;20029;-73
2023/07/21 04:08:07;;;;;;;4.07;2.67;;;12.70;99.90;;;;;;5050914;28;20036;-73
2023/07/21 04:10:33;;;;;;;6.65;2.55;;;12.60;99.90;;;;;;5050222;28;20041;-73
2023/07/21 04:12:59;;;;;;;7.00;2.65;;;12.70;99.90;;;;;;5050942;28;20110;-73
2023/07/21 04:15:28;;;;;;;6.65;3.13;;;12.70;99.90;;;;;;5050631;28;20117;-73
2023/07/21 04:17:54;;;;;;;5.70;2.78;;;12.60;99.90;;;;;;5049791;28;20043;-73
2023/07/21 04:20:22;;;;;;;5.03;2.95;;;12.70;99.90;;;;;;5050448;28;20402;-72
2023/07/21 04:22:48;;;;;;;4.65;3.00;;;12.70;99.90;;;;;;5049247;28;20051;-73
2023/07/21 04:25:15;;;;;;;4.80;2.50;;;12.70;99.90;;;;;;5050735;28;20028;-72
2023/07/21 04:27:41;;;;;;;7.53;2.70;;;12.70;99.90;;;;;;5049764;28;20118;-72
2023/07/21 04:30:07;;;;;;;6.80;2.60;;;12.80;99.90;;;;;;5050510;28;20474;-73
2023/07/21 04:32:33;;;;;;;4.55;2.60;;;12.80;99.90;;;;;;5049817;28;20394;-74
2023/07/21 04:34:59;;;;;;;8.32;2.50;;;12.80;99.90;;;;;;5050320;28;20025;-72
2023/07/21 04:37:26;;;;;;;5.68;2.60;;;12.80;99.90;;;;;;5050498;28;20033;-72
2023/07/21 04:39:51;;;;;;;4.85;2.95;;;12.80;99.90;;;;;;5050602;28;20025;-73
2023/07/21 04:42:17;;;;;;;3.72;2.28;;;12.90;99.90;;;;;;5050896;28;20037;-72
2023/07/21 04:44:44;;;;;;;6.25;2.60;;;12.90;99.90;;;;;;5049909;28;20062;-73
2023/07/21 04:47:10;;;;;;;3.95;2.38;;;12.90;99.90;;;;;;5050419;28;20296;-73
2023/07/21 04:49:36;;;;;;;6.45;3.10;;;12.90;99.90;;;;;;5050067;28;20106;-73
2023/07/21 04:52:03;;;;;;;4.55;2.40;;;13.00;99.90;;;;;;5050159;28;20086;-73
2023/07/21 04:54:29;;;;;;;5.47;2.40;;;13.00;99.90;;;;;;5049715;28;20064;-73
2023/07/21 04:56:55;;;;;;;3.70;2.50;;;12.90;99.90;;;;;;5048293;28;20060;-73
2023/07/21 04:59:21;;;;;;;6.93;2.67;;;13.00;99.90;;;;;;5049931;28;20385;-73
2023/07/21 05:01:47;;;;;;;3.55;2.45;;;12.90;99.90;;;;;;5049719;28;20384;-73
2023/07/21 05:04:14;;;;;;;3.90;2.53;;;12.90;99.90;;;;;;5050010;28;20026;-72
2023/07/21 05:06:43;;;;;;;7.40;2.40;;;12.90;99.90;;;;;;5049246;28;20033;-71
2023/07/21 05:09:10;;;;;;;4.20;2.60;;;13.00;99.90;;;;;;5050148;28;20035;-74
2023/07/21 05:11:36;;;;;;;8.73;2.92;;;13.00;99.90;;;;;;5049571;28;20052;-74
2023/07/21 05:14:03;;;;;;;5.35;2.72;;;13.00;99.90;;;;;;5050323;28;20092;-73
2023/07/21 05:16:29;;;;;;;5.15;2.70;;;13.10;99.90;;;;;;5049540;28;20521;-74
2023/07/21 05:18:55;;;;;;;5.40;2.83;;;13.00;99.90;;;;;;5049129;28;20025;-72
2023/07/21 05:21:21;;;;;;;4.20;2.53;;;13.00;99.90;;;;;;5049897;28;20330;-73
2023/07/21 05:23:46;;;;;;;4.40;2.38;;;13.00;99.90;;;;;;5049248;28;20029;-74
2023/07/21 05:26:12;;;;;;;6.15;2.80;;;13.10;99.90;;;;;;5050064;28;20381;-72
2023/07/21 05:28:38;;;;;;;4.07;2.55;;;13.00;99.90;;;;;;5048855;28;20410;-71
2023/07/21 05:31:04;;;;;;;7.13;2.65;;;13.10;99.90;;;;;;5049543;28;20120;-71
2023/07/21 05:33:30;;;;;;;5.35;2.80;;;13.10;99.90;;;;;;5049739;28;20078;-71
2023/07/21 05:36:07;;;;;;;4.43;2.22;;;13.00;99.90;;;;;;5052498;28;20021;-71
2023/07/21 05:38:37;;;;;;;3.55;2.22;;;13.10;99.90;;;;;;5053493;28;20029;-73
2023/07/21 05:41:03;;;;;;;6.47;2.83;;;13.10;99.90;;;;;;5053443;28;20131;-73
2023/07/21 05:43:29;;;;;;;5.60;2.70;;;13.10;99.90;;;;;;5053033;28;20386;-73
2023/07/21 05:45:55;;;;;;;4.95;2.50;;;13.10;99.90;;;;;;5052596;28;20025;-71
2023/07/21 05:48:24;;;;;;;5.00;2.75;;;13.10;99.90;;;;;;5051655;28;20029;-73
2023/07/21 05:50:51;;;;;;;5.55;2.70;;;13.10;99.90;;;;;;5051514;28;20017;-73
2023/07/21 05:53:17;;;;;;;6.13;2.75;;;13.20;99.90;;;;;;5053194;28;20408;-73
2023/07/21 05:55:43;;;;;;;4.90;2.60;;;13.10;99.90;;;;;;5052523;28;20033;-73
2023/07/21 05:58:09;;;;;;;4.85;2.50;;;13.10;99.90;;;;;;5051704;28;20029;-73
2023/07/21 06:00:39;;;;;;;4.78;2.58;;;13.10;99.90;;;;;;5053182;28;20052;-73
2023/07/21 06:03:05;;;;;;;4.57;2.55;;;13.10;99.90;;;;;;5052964;28;20086;-73
2023/07/21 06:05:32;;;;;;;5.95;2.70;;;13.20;99.90;;;;;;5052922;28;20051;-73
2023/07/21 06:07:58;;;;;;;2.92;2.15;;;13.20;99.90;;;;;;5052433;28;20013;-73
2023/07/21 06:10:24;;;;;;;6.35;2.58;;;13.10;99.90;;;;;;5053085;28;20021;-72
2023/07/21 06:12:49;;;;;;;6.43;2.72;;;13.10;99.90;;;;;;5051147;28;20025;-74
2023/07/21 06:15:15;;;;;;;5.38;3.13;;;13.20;99.90;;;;;;5051057;28;20041;-73
2023/07/21 06:17:41;;;;;;;3.78;2.45;;;13.30;99.90;;;;;;5051949;28;20398;-74
2023/07/21 06:20:10;;;;;;;5.82;2.60;;;13.30;99.90;;;;;;5052307;28;20039;-73
2023/07/21 06:22:36;;;;;;;5.50;2.95;;;13.30;99.90;;;;;;5052564;28;20047;-73
2023/07/21 06:25:03;;;;;;;5.57;2.58;;;13.40;99.90;;;;;;5052121;28;20455;-73
2023/07/21 06:27:29;;;;;;;4.57;2.85;;;13.50;99.90;;;;;;5052554;28;20045;-73
2023/07/21 06:29:55;;;;;;;3.83;2.17;;;13.50;99.90;;;;;;5052261;28;20048;-73
2023/07/21 06:32:21;;;;;;;4.32;2.70;;;13.50;99.90;;;;;;5052701;28;20462;-73
2023/07/21 06:34:47;;;;;;;6.53;2.40;;;13.60;99.90;;;;;;5051738;28;20123;-73
2023/07/21 06:37:13;;;;;;;9.18;2.65;;;13.50;99.90;;;;;;5052589;28;20035;-73
2023/07/21 06:39:39;;;;;;;4.38;2.47;;;13.50;99.90;;;;;;5051915;28;20474;-76
2023/07/21 06:42:05;;;;;;;4.60;2.42;;;13.60;99.90;;;;;;5052299;28;20048;-73
2023/07/21 06:44:31;;;;;;;4.20;2.65;;;13.60;99.90;;;;;;5052167;28;20124;-73
2023/07/21 06:46:57;;;;;;;5.63;2.63;;;13.60;99.90;;;;;;5050808;28;20025;-73
2023/07/21 06:49:23;;;;;;;4.22;2.45;;;13.70;99.90;;;;;;5052232;28;20018;-73
2023/07/21 06:51:49;;;;;;;6.35;2.60;;;13.70;99.90;;;;;;5051599;28;20139;-73
2023/07/21 06:54:14;;;;;;;4.85;2.60;;;13.70;99.90;;;;;;5051896;28;20031;-73
2023/07/21 06:56:40;;;;;;;6.47;2.80;;;13.80;99.90;;;;;;5051880;28;20040;-76
2023/07/21 06:59:06;;;;;;;7.93;2.38;;;13.80;99.90;;;;;;5051744;28;20069;-74
2023/07/21 07:01:31;;;;;;;6.22;2.65;;;13.80;99.90;;;;;;5051884;28;20105;-73
2023/07/21 07:03:59;;;;;;;5.63;2.85;;;13.80;99.90;;;;;;5051204;28;20035;-71
2023/07/21 07:06:28;;;;;;;4.35;2.45;;;13.80;99.90;;;;;;5051968;28;20033;-72
2023/07/21 07:08:55;;;;;;;9.07;3.08;;;13.80;99.90;;;;;;5049748;28;20431;-72
2023/07/21 07:11:21;;;;;;;7.63;2.60;;;13.90;99.90;;;;;;5051883;28;20025;-72
2023/07/21 07:13:47;;;;;;;4.43;2.53;;;14.00;99.90;;;;;;5050789;28;20075;-72
2023/07/21 07:16:13;;;;;;;7.20;2.60;;;14.10;99.90;;;;;;5051686;28;20033;-72
2023/07/21 07:18:39;;;;;;;4.80;2.22;;;14.20;99.90;;;;;;5051814;28;20466;-72
2023/07/21 07:21:04;;;;;;;5.65;2.35;;;14.20;99.90;;;;;;5050890;28;20043;-72
2023/07/21 07:23:30;;;;;;;5.90;2.55;;;14.30;99.90;;;;;;5051693;28;20021;-72
2023/07/21 07:25:56;;;;;;;9.10;2.60;;;14.40;99.90;;;;;;5050821;28;20572;-72
2023/07/21 07:28:22;;;;;;;5.50;2.17;;;14.50;99.90;;;;;;5049584;28;20498;-71
2023/07/21 07:30:48;;;;;;;3.08;2.17;;;14.50;99.90;;;;;;5050562;28;20059;-73
2023/07/21 07:33:15;;;;;;;3.53;2.10;;;14.50;99.90;;;;;;5051146;28;20029;-72
2023/07/21 07:35:52;;;;;;;4.22;2.45;;;14.60;99.90;;;;;;5050881;28;20025;-72
2023/07/21 07:38:19;;;;;;;3.92;2.50;;;14.60;99.90;;;;;;5051565;28;20040;-72
2023/07/21 07:40:47;;;;;;;5.32;2.13;;;14.60;99.90;;;;;;5050424;28;20029;-75
2023/07/21 07:43:13;;;;;;;3.50;2.10;;;14.70;99.90;;;;;;5051089;28;20372;-72
2023/07/21 07:45:39;;;;;;;4.35;2.13;;;14.80;99.90;;;;;;5051111;28;20104;-72
2023/07/21 07:48:07;;;;;;;5.18;2.03;;;14.90;99.90;;;;;;5050218;28;20173;-73
2023/07/21 07:50:36;;;;;;;2.72;1.55;;;15.00;99.90;;;;;;5051183;28;20474;-71
2023/07/21 07:53:02;;;;;;;4.15;1.70;;;15.10;99.90;;;;;;5050313;28;20439;-72
2023/07/21 07:55:28;;;;;;;3.08;1.90;;;15.00;99.90;;;;;;5050952;28;20036;-72
2023/07/21 07:57:55;;;;;;;5.82;2.00;;;15.00;99.90;;;;;;5047783;28;20025;-72
2023/07/21 08:00:21;;;;;;;5.60;1.77;;;15.00;99.90;;;;;;5050488;28;20033;-72
2023/07/21 08:02:47;;;;;;;1.80;1.55;;;15.10;99.90;;;;;;5050304;28;20025;-73
2023/07/21 08:05:13;;;;;;;7.18;1.85;;;15.30;99.90;;;;;;5050872;28;20375;-72
2023/07/21 08:07:39;;;;;;;4.25;2.10;;;15.40;99.90;;;;;;5051004;28;20062;-72
2023/07/21 08:10:05;;;;;;;5.60;1.60;;;15.50;99.90;;;;;;5048608;28;20021;-71
2023/07/21 08:12:31;;;;;;;3.13;1.65;;;15.60;99.90;;;;;;5050534;28;20025;-72
2023/07/21 08:14:56;;;;;;;2.28;1.60;;;15.70;99.90;;;;;;5050435;28;20029;-71
2023/07/21 08:17:23;;;;;;;3.83;1.67;;;15.80;99.90;;;;;;5049509;28;20044;-71
2023/07/21 08:19:49;;;;;;;2.40;1.40;;;16.00;99.90;;;;;;5050141;28;20024;-72
2023/07/21 08:22:15;;;;;;;2.45;1.27;;;16.10;99.90;;;;;;5050148;28;20031;-72
2023/07/21 08:24:40;;;;;;;3.22;1.30;;;16.20;99.90;;;;;;5050108;28;20037;-74
2023/07/21 08:27:08;;;;;;;3.85;1.70;;;16.20;99.90;;;;;;5048177;28;20036;-73
2023/07/21 08:29:34;;;;;;;4.05;1.20;;;16.10;99.90;;;;;;5049654;28;20497;-72
2023/07/21 08:32:00;;;;;;;2.78;1.33;;;16.10;99.90;;;;;;5049224;28;20037;-72
2023/07/21 08:34:25;;;;;;;3.00;1.35;;;16.20;99.90;;;;;;5050092;28;20045;-72
2023/07/21 08:36:51;;;;;;;3.42;1.55;;;16.30;99.90;;;;;;5049380;28;20048;-72
2023/07/21 08:39:17;;;;;;;3.70;1.40;;;16.40;99.90;;;;;;5049911;28;20107;-72
2023/07/21 08:41:48;;;;;;;4.30;1.65;;;16.50;99.90;;;;;;5049888;28;20051;-72
2023/07/21 08:44:16;;;;;;;2.58;1.48;;;16.60;99.90;;;;;;5050374;28;20442;-73
2023/07/21 08:46:42;;;;;;;3.75;1.60;;;16.60;99.90;;;;;;5049961;28;20033;-72
2023/07/21 08:49:09;;;;;;;2.33;1.35;;;16.60;99.90;;;;;;5049793;28;20102;-72
2023/07/21 08:51:36;;;;;;;4.30;1.60;;;16.80;99.90;;;;;;5050008;28;20407;-72
2023/07/21 08:54:02;;;;;;;2.80;1.13;;;16.80;99.90;;;;;;5049227;28;20472;-72
2023/07/21 08:56:27;;;;;;;2.10;1.30;;;16.80;99.90;;;;;;5049792;28;20025;-72
2023/07/21 08:58:53;;;;;;;6.53;1.48;;;16.80;99.90;;;;;;5049194;28;20037;-72
2023/07/21 09:01:19;;;;;;;3.25;1.10;;;16.70;99.90;;;;;;5049711;28;20025;-73
2023/07/21 09:03:46;;;;;;;2.42;1.08;;;16.70;99.90;;;;;;5050049;28;20076;-72
2023/07/21 09:06:13;;;;;;;2.28;1.30;;;16.80;99.90;;;;;;5049240;28;20033;-72
2023/07/21 09:08:39;;;;;;;1.65;1.40;;;16.80;99.90;;;;;;5049812;28;20036;-70
2023/07/21 09:11:05;;;;;;;3.05;1.20;;;17.00;99.90;;;;;;5053246;28;20100;-73
2023/07/21 09:13:32;;;;;;;4.30;1.50;;;17.10;99.90;;;;;;5054046;28;20462;-72
2023/07/21 09:15:59;;;;;;;3.33;1.00;;;17.30;99.90;;;;;;5053510;28;20033;-73
2023/07/21 09:18:30;;;;;;;1.90;1.00;;;17.30;99.90;;;;;;5053419;28;20074;-73
2023/07/21 09:20:57;;;;;;;2.70;1.20;;;17.30;99.90;;;;;;5052572;28;20025;-73
2023/07/21 09:23:23;;;;;;;2.03;0.90;;;17.40;99.90;;;;;;5053267;28;20030;-73
2023/07/21 09:25:57;;;;;;;2.53;0.93;;;17.50;99.90;;;;;;5052557;28;20379;-75
2023/07/21 09:28:40;;;;;;;2.35;0.80;;;17.70;99.90;;;;;;5052483;28;20509;-73
2023/07/21 09:31:06;;;;;;;1.73;1.35;;;17.80;99.90;;;;;;5051485;28;20029;-73
2023/07/21 09:33:39;;;;;;;4.50;1.20;;;17.90;99.90;;;;;;5053353;28;20053;-72
2023/07/21 09:36:04;;;;;;;;;;;18.00;99.90;;;;;;5053302;28;20032;-73
2023/07/21 09:38:30;;;;;;;2.45;1.27;;;18.10;99.90;;;;;;5053173;28;19909;-73
2023/07/21 09:41:11;;;;;;;2.25;1.20;;;18.30;99.90;;;;;;5052894;28;20123;-73
2023/07/21 09:43:37;;;;;;;2.80;1.10;;;18.40;99.90;;;;;;5051870;28;20031;-73
2023/07/21 09:46:05;;;;;;;1.85;1.10;;;18.60;99.90;;;;;;5052753;28;20465;-72
2023/07/21 09:48:31;;;;;;;1.95;1.45;;;18.60;99.90;;;;;;5053574;28;20025;-72
2023/07/21 09:50:59;;;;;;;1.33;1.05;;;18.60;99.90;;;;;;5052984;28;20021;-73
2023/07/21 09:53:35;;;;;;;1.25;0.93;;;18.50;99.90;;;;;;5052672;28;20324;-73
2023/07/21 09:56:03;;;;;;;1.40;1.10;;;18.10;99.90;;;;;;5052724;28;20454;-73
2023/07/21 09:58:30;;;;;;;3.35;1.40;;;17.90;99.90;;;;;;5053414;28;20040;-72
2023/07/21 10:01:01;;;;;;;2.55;1.35;;;17.80;99.90;;;;;;5052752;28;20029;-73
2023/07/21 10:03:27;;;;;;;2.08;1.20;;;17.60;99.90;;;;;;5053197;28;20123;-72
2023/07/21 10:05:53;;;;;;;2.00;1.30;;;17.60;99.90;;;;;;5053066;28;20460;-74
2023/07/21 10:08:21;;;;;;;3.85;1.42;;;17.40;99.90;;;;;;5053010;28;20058;-72
2023/07/21 10:10:47;;;;;;;2.25;1.40;;;17.40;99.90;;;;;;5053171;28;20038;-71
2023/07/21 10:13:13;;;;;;;1.85;1.48;;;17.30;99.90;;;;;;5052213;28;20202;-71
2023/07/21 10:15:41;;;;;;;2.97;1.73;;;17.40;99.90;;;;;;5051292;28;20478;-72
2023/07/21 10:18:14;;;;;;;2.13;1.33;;;17.60;99.90;;;;;;5052024;28;20040;-72
2023/07/21 10:20:44;;;;;;;4.28;1.70;;;17.60;99.90;;;;;;5052142;28;20037;-72
2023/07/21 10:23:13;;;;;;;2.20;1.55;;;17.60;99.90;;;;;;5052036;28;20029;-72
2023/07/21 10:25:46;;;;;;;1.40;1.30;;;17.60;99.90;;;;;;5052634;28;20465;-71
2023/07/21 10:28:13;;;;;;;4.78;1.70;;;17.50;99.90;;;;;;5051799;28;20132;-72
2023/07/21 10:30:39;;;;;;;2.35;1.50;;;17.30;99.90;;;;;;5052842;28;20061;-73
2023/07/21 10:33:20;;;;;;;4.35;2.00;;;17.40;99.90;;;;;;5050769;28;20083;-73
2023/07/21 10:35:47;;;;;;;2.67;1.30;;;17.50;99.90;;;;;;5052882;28;20127;-71
2023/07/21 10:38:13;;;;;;;2.72;1.50;;;17.60;99.90;;;;;;5051619;28;20029;-71
2023/07/21 10:40:41;;;;;;;4.80;2.05;;;17.80;99.90;;;;;;5052573;28;20370;-71
2023/07/21 10:43:06;;;;;;;2.30;1.30;;;18.00;99.90;;;;;;5051664;28;20025;-71
2023/07/21 10:45:32;;;;;;;2.85;1.58;;;18.20;99.90;;;;;;5052289;28;20040;-71
2023/07/21 10:48:11;;;;;;;1.30;1.20;;;18.40;99.90;;;;;;5051521;28;20473;-74
2023/07/21 10:50:54;;;;;;;2.80;1.40;;;18.60;99.90;;;;;;5052442;28;20021;-71
2023/07/21 10:53:23;;;;;;;2.33;1.40;;;18.70;99.90;;;;;;5050337;28;20033;-72
2023/07/21 10:55:53;;;;;;;3.00;1.40;;;18.90;99.90;;;;;;5051950;28;20036;-71
2023/07/21 10:58:19;;;;;;;4.32;1.65;;;18.90;99.90;;;;;;5051485;28;20033;-72
2023/07/21 11:00:51;;;;;;;2.00;1.30;;;18.70;99.90;;;;;;5051724;28;20025;-71
2023/07/21 11:03:17;;;;;;;2.25;1.33;;;18.70;99.90;;;;;;5051360;28;20028;-71
2023/07/21 11:05:44;;;;;;;2.92;1.35;;;18.70;99.90;;;;;;5051783;28;20029;-71
2023/07/21 11:08:24;;;;;;;2.72;1.50;;;18.80;99.90;;;;;;5051112;28;20068;-71
2023/07/21 11:10:49;;;;;;;1.83;1.17;;;18.80;99.90;;;;;;5051398;28;20338;-71
2023/07/21 11:13:15;;;;;;;9.57;1.33;;;19.00;99.90;;;;;;5050707;28;20030;-71
2023/07/21 11:15:41;;;;;;;3.30;1.10;;;19.30;99.90;;;;;;5051611;28;20025;-71
2023/07/21 11:18:06;;;;;;;1.60;1.23;;;19.40;99.90;;;;;;5050805;28;20040;-71
2023/07/21 11:20:35;;;;;;;2.55;1.17;;;19.40;99.90;;;;;;5051348;28;20082;-71
2023/07/21 11:23:01;;;;;;;1.75;1.33;;;19.30;99.90;;;;;;5050658;28;20091;-72
2023/07/21 11:25:27;;;;;;;4.13;1.40;;;19.20;99.90;;;;;;5051263;28;20131;-72
2023/07/21 11:27:53;;;;;;;1.70;1.10;;;19.00;99.90;;;;;;5051118;28;20162;-72
2023/07/21 11:30:19;;;;;;;1.52;1.30;;;18.90;99.90;;;;;;5050637;28;20394;-72
2023/07/21 11:32:46;;;;;;;1.55;1.20;;;18.90;99.90;;;;;;5050958;28;20037;-72
2023/07/21 11:35:12;;;;;;;1.60;0.93;;;19.10;99.90;;;;;;5050572;28;20068;-72
2023/07/21 11:37:42;;;;;;;4.20;1.80;;;19.10;99.90;;;;;;5050969;28;20049;-72
2023/07/21 11:40:15;;;;;;;3.45;1.17;;;19.10;99.90;;;;;;5051024;28;20115;-73
2023/07/21 11:42:48;;;;;;;;;;;18.90;99.90;;;;;;5051754;28;20028;-72
2023/07/21 11:45:37;;;;;;;2.95;1.42;;;18.70;99.90;;;;;;5050371;28;19947;-72
2023/07/21 11:48:15;;;;;;;2.80;1.73;;;18.80;99.90;;;;;;5049044;28;20044;-72
2023/07/21 11:50:48;;;;;;;2.22;1.35;;;18.70;99.90;;;;;;5050786;28;20082;-72
2023/07/21 11:53:14;;;;;;;4.90;1.58;;;18.80;99.90;;;;;;5050377;28;20363;-72
2023/07/21 11:55:39;;;;;;;3.63;1.80;;;18.80;99.90;;;;;;5050128;28;20037;-73
2023/07/21 11:58:05;;;;;;;2.78;1.70;;;18.70;99.90;;;;;;5049258;28;20463;-72
2023/07/21 12:00:32;;;;;;;2.03;1.65;;;18.70;99.90;;;;;;5050907;28;20021;-72
2023/07/21 12:02:59;;;;;;;3.40;1.60;;;18.70;99.90;;;;;;5050742;28;20136;-72
2023/07/21 12:05:25;;;;;;;4.35;1.60;;;18.70;99.90;;;;;;5050559;28;20590;-72
2023/07/21 12:07:52;;;;;;;3.70;1.88;;;18.70;99.90;;;;;;5050402;28;20104;-72
2023/07/21 12:10:18;;;;;;;3.13;2.08;;;18.80;99.90;;;;;;5050200;28;20021;-73
2023/07/21 12:12:44;;;;;;;4.25;1.55;;;18.90;99.90;;;;;;5050562;28;20435;-73
2023/07/21 12:15:10;;;;;;;3.53;1.88;;;19.10;99.90;;;;;;5031900;28;20056;-73
2023/07/21 12:17:37;;;;;;;3.00;1.90;;;19.20;99.90;;;;;;5050647;28;20343;-73
2023/07/21 12:20:11;;;;;;;3.42;2.20;;;19.30;99.90;;;;;;5049579;28;20021;-73
2023/07/21 12:22:38;;;;;;;3.63;1.75;;;19.40;99.90;;;;;;5050696;28;20025;-72
2023/07/21 12:25:04;;;;;;;2.58;1.92;;;19.30;99.90;;;;;;5050057;28;20178;-73
2023/07/21 12:27:30;;;;;;;3.97;1.83;;;19.30;99.90;;;;;;5049880;28;20151;-72
2023/07/21 12:29:56;;;;;;;4.18;1.83;;;19.30;99.90;;;;;;5050265;28;20430;-72
2023/07/21 12:32:22;;;;;;;4.47;2.40;;;19.40;99.90;;;;;;5049969;28;20075;-72
2023/07/21 12:34:48;;;;;;;2.67;1.83;;;19.40;99.90;;;;;;5050337;28;20126;-71
2023/07/21 12:37:14;;;;;;;2.63;1.90;;;19.50;99.90;;;;;;5049537;28;20140;-72
2023/07/21 12:39:40;;;;;;;5.05;1.90;;;19.50;99.90;;;;;;5049942;28;20105;-72
2023/07/21 12:42:07;;;;;;;3.53;1.80;;;19.60;99.90;;;;;;5049649;28;20111;-73
2023/07/21 12:44:33;;;;;;;3.65;1.60;;;19.50;99.90;;;;;;5049120;28;20059;-72
2023/07/21 12:46:59;;;;;;;3.85;2.08;;;19.50;99.90;;;;;;5048471;28;20029;-72